createdAt,value
2018-09-03T00:02:24.115Z,14.30
2018-09-03T00:04:53.613Z,14.30
2018-09-03T00:07:23.102Z,14.30
2018-09-03T00:09:52.585Z,14.30
2018-09-03T00:12:22.116Z,14.20
2018-09-03T00:14:51.503Z,14.20
2018-09-03T00:17:20.882Z,14.20
2018-09-03T00:19:50.253Z,14.10
2018-09-03T00:22:19.578Z,14.10
2018-09-03T00:24:49.079Z,14.10
2018-09-03T00:27:18.478Z,14.00
2018-09-03T00:29:47.855Z,14.00
2018-09-03T00:32:22.759Z,14.00
2018-09-03T00:34:57.405Z,13.90
2018-09-03T00:38:33.346Z,13.90
2018-09-03T00:41:08.110Z,13.80
2018-09-03T00:43:42.921Z,13.80
2018-09-03T00:46:17.685Z,13.80
2018-09-03T00:48:47.202Z,13.70
2018-09-03T00:51:16.583Z,13.70
2018-09-03T00:53:46.030Z,13.70
2018-09-03T00:56:15.434Z,13.60
2018-09-03T00:58:44.729Z,13.60
2018-09-03T01:01:20.751Z,13.50
2018-09-03T01:03:50.235Z,13.50
2018-09-03T01:06:19.615Z,13.40
2018-09-03T01:08:48.998Z,13.40
2018-09-03T01:11:24.555Z,13.40
2018-09-03T01:13:55.471Z,13.30
2018-09-03T01:16:25.054Z,13.30
2018-09-03T01:18:56.038Z,13.30
2018-09-03T01:21:26.154Z,13.30
2018-09-03T01:23:55.946Z,13.30
2018-09-03T01:29:06.047Z,13.20
2018-09-03T01:31:35.459Z,13.10
2018-09-03T01:34:04.983Z,13.00
2018-09-03T01:36:34.470Z,13.10
2018-09-03T01:39:04.901Z,13.10
2018-09-03T01:41:34.334Z,13.20
2018-09-03T01:44:03.643Z,13.20
2018-09-03T01:46:33.166Z,13.30
2018-09-03T01:49:02.676Z,13.40
2018-09-03T01:51:32.142Z,13.40
2018-09-03T01:54:01.630Z,13.40
2018-09-03T02:03:49.292Z,13.60
2018-09-03T02:06:19.159Z,13.60
2018-09-03T02:08:48.561Z,13.60
2018-09-03T02:11:18.058Z,13.60
2018-09-03T02:13:47.563Z,13.70
2018-09-03T02:16:17.074Z,13.70
2018-09-03T02:18:46.442Z,13.70
2018-09-03T02:21:16.002Z,13.70
2018-09-03T02:23:45.386Z,13.70
2018-09-03T02:26:14.750Z,13.70
2018-09-03T02:33:38.980Z,13.70
2018-09-03T02:36:08.502Z,13.60
2018-09-03T02:38:37.963Z,13.60
2018-09-03T02:41:07.491Z,13.60
2018-09-03T02:43:36.786Z,13.60
2018-09-03T02:46:06.446Z,13.50
2018-09-03T02:48:35.843Z,13.50
2018-09-03T02:51:05.582Z,13.50
2018-09-03T02:53:35.077Z,13.40
2018-09-03T02:56:04.646Z,13.40
2018-09-03T02:58:34.081Z,13.40
2018-09-03T03:01:03.567Z,13.40
2018-09-03T03:03:33.004Z,13.30
2018-09-03T03:06:02.295Z,13.30
2018-09-03T03:08:31.790Z,13.20
2018-09-03T03:11:03.078Z,13.20
2018-09-03T03:13:32.707Z,13.10
2018-09-03T03:16:02.080Z,13.00
2018-09-03T03:18:31.590Z,13.00
2018-09-03T03:21:00.950Z,13.00
2018-09-03T03:23:30.302Z,13.00
2018-09-03T03:25:59.678Z,13.00
2018-09-03T03:28:29.181Z,13.00
2018-09-03T03:30:58.730Z,12.90
2018-09-03T03:33:28.246Z,12.80
2018-09-03T03:35:57.774Z,12.80
2018-09-03T03:38:27.124Z,12.80
2018-09-03T03:40:56.490Z,12.70
2018-09-03T03:43:26.050Z,12.60
2018-09-03T03:45:55.535Z,12.60
2018-09-03T03:48:24.991Z,12.60
2018-09-03T03:50:54.418Z,12.50
2018-09-03T03:53:23.975Z,12.50
2018-09-03T03:55:53.308Z,12.50
2018-09-03T03:58:22.717Z,12.50
2018-09-03T04:00:52.210Z,12.50
2018-09-03T04:03:22.646Z,12.50
2018-09-03T04:05:52.170Z,12.50
2018-09-03T04:08:21.657Z,12.50
2018-09-03T04:10:51.066Z,12.50
2018-09-03T04:13:20.443Z,12.40
2018-09-03T04:15:49.973Z,12.40
2018-09-03T04:18:19.387Z,12.40
2018-09-03T04:20:48.719Z,12.30
2018-09-03T04:23:18.312Z,12.30
2018-09-03T04:25:47.473Z,12.20
2018-09-03T04:28:17.071Z,12.20
2018-09-03T04:30:46.626Z,12.20
2018-09-03T04:33:16.071Z,12.20
2018-09-03T04:35:45.592Z,12.20
2018-09-03T04:38:15.029Z,12.20
2018-09-03T04:40:44.614Z,12.20
2018-09-03T04:43:14.098Z,12.20
2018-09-03T04:45:44.978Z,12.20
2018-09-03T04:48:14.560Z,12.20
2018-09-03T04:50:43.854Z,12.20
2018-09-03T04:53:13.228Z,12.20
2018-09-03T04:55:42.741Z,12.30
2018-09-03T04:58:12.223Z,12.30
2018-09-03T05:00:42.192Z,12.30
2018-09-03T05:03:11.623Z,12.30
2018-09-03T05:05:42.079Z,12.40
2018-09-03T05:08:11.607Z,12.40
2018-09-03T05:10:42.205Z,12.50
2018-09-03T05:13:11.594Z,12.60
2018-09-03T05:15:42.126Z,12.60
2018-09-03T05:18:11.655Z,12.60
2018-09-03T05:20:41.131Z,12.70
2018-09-03T05:23:10.511Z,12.70
2018-09-03T05:25:39.862Z,12.80
2018-09-03T05:28:09.229Z,12.90
2018-09-03T05:30:38.726Z,13.00
2018-09-03T05:33:08.163Z,13.10
2018-09-03T05:35:37.511Z,13.20
2018-09-03T05:43:01.272Z,13.50
2018-09-03T05:45:30.768Z,13.70
2018-09-03T05:48:00.248Z,13.80
2018-09-03T05:50:29.733Z,14.00
2018-09-03T05:52:59.090Z,14.20
2018-09-03T05:55:28.526Z,14.50
2018-09-03T05:57:57.991Z,14.90
2018-09-03T06:00:27.580Z,15.30
2018-09-03T06:02:57.084Z,15.90
2018-09-03T06:05:26.731Z,16.60
2018-09-03T06:07:56.151Z,17.30
2018-09-03T06:10:25.823Z,17.90
2018-09-03T06:12:55.161Z,18.40
2018-09-03T06:15:24.898Z,18.70
2018-09-03T06:17:54.318Z,18.60
2018-09-03T06:25:18.508Z,18.50
2018-09-03T06:27:48.043Z,17.60
2018-09-03T06:30:17.459Z,17.50
2018-09-03T06:32:46.952Z,17.40
2018-09-03T06:35:16.454Z,17.20
2018-09-03T06:37:45.817Z,17.00
2018-09-03T06:40:15.240Z,17.00
2018-09-03T06:42:44.792Z,16.80
2018-09-03T06:45:14.447Z,16.50
2018-09-03T06:47:43.966Z,16.30
2018-09-03T06:50:13.654Z,16.10
2018-09-03T06:52:43.059Z,16.00
2018-09-03T06:55:12.690Z,15.90
2018-09-03T06:57:42.703Z,15.80
2018-09-03T07:00:12.152Z,15.90
2018-09-03T07:02:42.765Z,16.00
2018-09-03T07:05:12.978Z,16.00
2018-09-03T07:07:42.871Z,16.10
2018-09-03T07:10:12.218Z,15.90
2018-09-03T07:17:36.598Z,15.80
2018-09-03T07:20:06.057Z,15.80
2018-09-03T07:22:35.547Z,15.90
2018-09-03T07:25:05.079Z,16.00
2018-09-03T07:27:34.438Z,16.00
2018-09-03T07:30:04.154Z,16.10
2018-09-03T07:32:33.530Z,16.00
2018-09-03T07:35:03.149Z,16.00
2018-09-03T07:37:32.942Z,16.20
2018-09-03T07:40:02.321Z,16.20
2018-09-03T07:42:31.678Z,16.20
2018-09-03T07:45:01.247Z,16.30
2018-09-03T07:47:30.624Z,16.30
2018-09-03T07:50:00.055Z,16.40
2018-09-03T07:52:29.623Z,16.40
2018-09-03T07:54:59.034Z,16.50
2018-09-03T07:57:28.574Z,16.70
2018-09-03T07:59:58.104Z,16.80
2018-09-03T08:02:27.566Z,16.90
2018-09-03T08:04:56.951Z,17.00
2018-09-03T08:07:26.500Z,17.00
2018-09-03T08:09:55.967Z,17.20
2018-09-03T08:12:25.666Z,17.40
2018-09-03T08:14:55.106Z,17.70
2018-09-03T08:17:24.856Z,17.80
2018-09-03T08:19:54.282Z,17.90
2018-09-03T08:22:23.894Z,18.00
2018-09-03T08:24:53.235Z,18.10
2018-09-03T08:27:22.667Z,18.30
2018-09-03T08:29:52.030Z,18.50
2018-09-03T08:32:21.642Z,18.60
2018-09-03T08:34:51.162Z,18.80
2018-09-03T08:42:22.610Z,18.70
2018-09-03T08:44:52.181Z,18.60
2018-09-03T08:47:21.711Z,18.60
2018-09-03T08:49:51.369Z,18.60
2018-09-03T08:52:20.830Z,18.80
2018-09-03T08:54:50.359Z,18.90
2018-09-03T08:57:19.915Z,18.90
2018-09-03T08:59:49.322Z,19.10
2018-09-03T09:02:18.988Z,19.20
2018-09-03T09:04:48.334Z,19.40
2018-09-03T09:07:17.715Z,19.50
2018-09-03T09:09:47.115Z,19.80
2018-09-03T09:12:16.511Z,20.00
2018-09-03T09:14:45.930Z,20.20
2018-09-03T09:17:15.371Z,20.40
2018-09-03T09:19:44.960Z,20.70
2018-09-03T09:22:14.307Z,20.90
2018-09-03T09:24:43.723Z,21.10
2018-09-03T09:27:13.721Z,21.30
2018-09-03T09:34:38.866Z,21.50
2018-09-03T09:37:08.474Z,21.30
2018-09-03T09:39:37.974Z,21.30
2018-09-03T09:42:07.576Z,21.20
2018-09-03T09:44:37.016Z,21.00
2018-09-03T09:47:06.387Z,21.10
2018-09-03T09:49:35.781Z,21.00
2018-09-03T09:52:05.444Z,20.90
2018-09-03T09:54:34.812Z,21.00
2018-09-03T09:57:04.266Z,21.20
2018-09-03T09:59:33.806Z,21.30
2018-09-03T10:02:03.392Z,21.30
2018-09-03T10:04:32.910Z,21.40
2018-09-03T10:07:02.315Z,21.50
2018-09-03T10:09:31.835Z,21.60
2018-09-03T10:12:02.605Z,21.60
2018-09-03T10:14:32.038Z,21.50
2018-09-03T10:17:01.650Z,21.70
2018-09-03T10:19:31.104Z,21.80
2018-09-03T10:22:00.580Z,21.80
2018-09-03T10:24:29.912Z,21.50
2018-09-03T10:26:59.269Z,21.50
2018-09-03T10:29:28.732Z,21.60
2018-09-03T10:31:58.228Z,21.50
2018-09-03T10:34:28.023Z,21.40
2018-09-03T10:36:57.457Z,21.20
2018-09-03T10:39:27.064Z,21.20
2018-09-03T10:41:56.567Z,21.20
2018-09-03T10:44:26.018Z,21.20
2018-09-03T10:46:55.454Z,21.30
2018-09-03T10:49:24.862Z,21.40
2018-09-03T10:51:54.432Z,21.20
2018-09-03T10:54:23.840Z,21.20
2018-09-03T10:56:54.096Z,21.30
2018-09-03T10:59:23.506Z,21.40
2018-09-03T11:01:53.123Z,21.30
2018-09-03T11:04:23.716Z,21.40
2018-09-03T11:06:53.074Z,21.60
2018-09-03T11:09:22.426Z,21.70
2018-09-03T11:11:51.928Z,21.80
2018-09-03T11:14:21.334Z,21.90
2018-09-03T11:16:50.858Z,22.00
2018-09-03T11:19:23.178Z,21.80
2018-09-03T11:21:52.555Z,21.80
2018-09-03T11:24:22.004Z,21.90
2018-09-03T11:26:51.450Z,21.90
2018-09-03T11:29:21.030Z,21.80
2018-09-03T11:31:50.654Z,21.70
2018-09-03T11:34:20.154Z,21.70
2018-09-03T11:36:49.653Z,21.80
2018-09-03T11:39:19.278Z,22.00
2018-09-03T11:41:48.746Z,22.10
2018-09-03T11:44:18.147Z,22.30
2018-09-03T11:46:47.463Z,22.40
2018-09-03T11:49:16.792Z,22.40
2018-09-03T11:51:46.367Z,22.40
2018-09-03T11:54:15.738Z,22.40
2018-09-03T12:01:39.391Z,22.60
2018-09-03T12:04:08.758Z,22.80
2018-09-03T12:06:38.263Z,22.80
2018-09-03T12:09:09.475Z,22.50
2018-09-03T12:11:38.876Z,22.50
2018-09-03T12:14:16.825Z,22.60
2018-09-03T12:16:46.363Z,22.60
2018-09-03T12:19:15.926Z,22.80
2018-09-03T12:21:45.532Z,22.70
2018-09-03T12:24:14.858Z,22.70
2018-09-03T12:26:44.198Z,22.60
2018-09-03T12:29:13.494Z,22.60
2018-09-03T12:31:43.910Z,22.60
2018-09-03T12:34:13.286Z,22.60
2018-09-03T12:36:43.634Z,22.70
2018-09-03T12:39:13.079Z,22.60
2018-09-03T12:41:42.586Z,22.60
2018-09-03T12:44:12.216Z,22.40
2018-09-03T12:46:41.702Z,22.40
2018-09-03T12:49:11.191Z,22.50
2018-09-03T12:51:40.566Z,22.70
2018-09-03T12:54:10.076Z,22.80
2018-09-03T12:56:39.615Z,22.80
2018-09-03T12:59:09.178Z,22.80
2018-09-03T13:01:38.616Z,22.50
2018-09-03T13:04:07.960Z,22.50
2018-09-03T13:06:37.303Z,22.30
2018-09-03T13:09:07.846Z,22.30
2018-09-03T13:11:37.238Z,22.50
2018-09-03T13:14:06.607Z,22.60
2018-09-03T13:16:36.073Z,22.80
2018-09-03T13:19:06.366Z,22.90
2018-09-03T13:21:35.762Z,23.10
2018-09-03T13:24:05.340Z,23.20
2018-09-03T13:26:34.867Z,23.30
2018-09-03T13:29:04.382Z,23.40
2018-09-03T13:31:33.823Z,23.50
2018-09-03T13:34:03.371Z,23.30
2018-09-03T13:36:32.913Z,23.30
2018-09-03T13:39:02.321Z,23.40
2018-09-03T13:41:31.835Z,23.20
2018-09-03T13:44:01.223Z,23.10
2018-09-03T13:46:30.550Z,23.10
2018-09-03T13:48:59.875Z,23.10
2018-09-03T13:51:29.386Z,22.90
2018-09-03T13:53:58.738Z,22.90
2018-09-03T13:56:28.316Z,22.70
2018-09-03T13:58:57.798Z,22.70
2018-09-03T14:01:27.230Z,22.80
2018-09-03T14:03:56.603Z,22.90
2018-09-03T14:06:26.017Z,22.90
2018-09-03T14:08:55.512Z,22.90
2018-09-03T14:11:25.021Z,23.00
2018-09-03T14:13:54.589Z,23.00
2018-09-03T14:16:24.076Z,23.10
2018-09-03T14:18:53.507Z,23.20
2018-09-03T14:21:23.187Z,23.20
2018-09-03T14:23:52.526Z,23.30
2018-09-03T14:26:21.838Z,23.30
2018-09-03T14:28:51.195Z,23.40
2018-09-03T14:31:21.090Z,23.40
2018-09-03T14:33:51.530Z,23.40
2018-09-03T14:36:20.881Z,23.40
2018-09-03T14:38:50.258Z,23.30
2018-09-03T14:41:19.768Z,23.30
2018-09-03T14:43:49.237Z,23.10
2018-09-03T14:46:18.771Z,23.10
2018-09-03T14:48:48.131Z,23.10
2018-09-03T14:51:17.491Z,23.20
2018-09-03T14:53:46.917Z,23.30
2018-09-03T14:56:16.428Z,23.30
2018-09-03T14:58:45.858Z,23.20
2018-09-03T15:01:15.210Z,23.20
2018-09-03T15:03:44.751Z,23.10
2018-09-03T15:06:14.081Z,23.20
2018-09-03T15:08:44.191Z,23.10
2018-09-03T15:11:13.522Z,23.10
2018-09-03T15:13:43.085Z,23.10
2018-09-03T15:16:12.988Z,23.20
2018-09-03T15:18:42.405Z,23.30
2018-09-03T15:21:11.970Z,23.40
2018-09-03T15:23:41.478Z,23.50
2018-09-03T15:26:10.906Z,23.60
2018-09-03T15:28:40.759Z,23.50
2018-09-03T15:31:10.254Z,23.60
2018-09-03T15:33:39.646Z,23.60
2018-09-03T15:36:09.205Z,23.60
2018-09-03T15:38:38.935Z,23.50
2018-09-03T15:41:08.944Z,23.50
2018-09-03T15:43:38.290Z,23.50
2018-09-03T15:46:08.751Z,23.30
2018-09-03T15:48:38.577Z,23.40
2018-09-03T15:51:08.223Z,23.40
2018-09-03T15:53:37.751Z,23.40
2018-09-03T15:56:07.202Z,23.10
2018-09-03T15:58:36.740Z,23.00
2018-09-03T16:01:06.283Z,23.00
2018-09-03T16:03:35.762Z,22.90
2018-09-03T16:06:05.895Z,22.90
2018-09-03T16:08:36.174Z,23.00
2018-09-03T16:11:05.783Z,23.10
2018-09-03T16:13:35.171Z,23.00
2018-09-03T16:16:05.039Z,23.00
2018-09-03T16:18:34.494Z,23.10
2018-09-03T16:21:03.984Z,23.20
2018-09-03T16:23:33.765Z,23.20
2018-09-03T16:26:03.278Z,23.20
2018-09-03T16:28:32.792Z,23.00
2018-09-03T16:31:02.318Z,22.90
2018-09-03T16:33:31.754Z,22.80
2018-09-03T16:36:01.385Z,22.70
2018-09-03T16:38:30.690Z,22.50
2018-09-03T16:41:00.615Z,22.40
2018-09-03T16:43:30.177Z,22.20
2018-09-03T16:45:59.690Z,22.10
2018-09-03T16:48:29.167Z,22.00
2018-09-03T16:50:58.730Z,22.00
2018-09-03T16:53:28.211Z,22.00
2018-09-03T16:55:57.671Z,22.00
2018-09-03T16:58:27.011Z,22.00
2018-09-03T17:00:56.478Z,22.00
2018-09-03T17:03:25.796Z,21.90
2018-09-03T17:05:55.170Z,21.80
2018-09-03T17:08:24.705Z,21.80
2018-09-03T17:10:54.097Z,21.70
2018-09-03T17:13:23.482Z,21.50
2018-09-03T17:15:52.930Z,21.50
2018-09-03T17:18:22.254Z,21.50
2018-09-03T17:20:51.759Z,21.50
2018-09-03T17:23:21.282Z,21.40
2018-09-03T17:25:50.682Z,21.30
2018-09-03T17:28:20.247Z,21.30
2018-09-03T17:30:49.770Z,21.30
2018-09-03T17:33:19.669Z,21.30
2018-09-03T17:35:49.200Z,21.30
2018-09-03T17:38:18.810Z,21.30
2018-09-03T17:40:48.338Z,21.30
2018-09-03T17:43:18.622Z,21.30
2018-09-03T17:45:48.027Z,21.30
2018-09-03T17:48:17.397Z,21.20
2018-09-03T17:50:46.906Z,21.20
2018-09-03T17:53:16.409Z,21.10
2018-09-03T17:55:45.765Z,21.00
2018-09-03T17:58:15.304Z,20.80
2018-09-03T18:00:44.814Z,20.70
2018-09-03T18:03:14.327Z,20.60
2018-09-03T18:05:44.669Z,20.50
2018-09-03T18:08:14.232Z,20.40
2018-09-03T18:10:44.765Z,20.30
2018-09-03T18:13:14.563Z,20.20
2018-09-03T18:15:44.723Z,20.10
2018-09-03T18:18:14.081Z,20.00
2018-09-03T18:20:43.598Z,19.80
2018-09-03T18:23:13.022Z,19.70
2018-09-03T18:25:42.350Z,19.70
2018-09-03T18:28:11.682Z,19.60
2018-09-03T18:30:41.072Z,19.40
2018-09-03T18:33:10.611Z,19.40
2018-09-03T18:40:34.618Z,19.20
2018-09-03T18:43:04.127Z,19.00
2018-09-03T18:45:33.635Z,18.90
2018-09-03T18:48:03.154Z,18.80
2018-09-03T18:50:32.494Z,18.70
2018-09-03T18:53:02.054Z,18.70
2018-09-03T18:55:31.566Z,18.60
2018-09-03T18:58:01.193Z,18.50
2018-09-03T19:00:30.596Z,18.40
2018-09-03T19:03:00.580Z,18.40
2018-09-03T19:05:29.924Z,18.30
2018-09-03T19:07:59.306Z,18.20
2018-09-03T19:10:28.634Z,18.10
2018-09-03T19:12:58.129Z,18.00
2018-09-03T19:15:27.676Z,18.00
2018-09-03T19:22:52.352Z,17.90
2018-09-03T19:25:21.903Z,17.70
2018-09-03T19:27:51.434Z,17.60
2018-09-03T19:30:20.939Z,17.60
2018-09-03T19:32:50.481Z,17.50
2018-09-03T19:35:20.006Z,17.50
2018-09-03T19:37:49.536Z,17.40
2018-09-03T19:40:19.064Z,17.40
2018-09-03T19:42:48.439Z,17.30
2018-09-03T19:45:17.918Z,17.30
2018-09-03T19:47:47.275Z,17.20
2018-09-03T19:50:16.694Z,17.10
2018-09-03T19:52:46.090Z,17.10
2018-09-03T19:55:15.675Z,17.00
2018-09-03T19:57:44.971Z,17.00
2018-09-03T20:00:14.648Z,17.00
2018-09-03T20:02:45.006Z,16.90
2018-09-03T20:05:14.562Z,16.90
2018-09-03T20:07:45.055Z,16.90
2018-09-03T20:10:14.583Z,16.90
2018-09-03T20:12:45.078Z,16.80
2018-09-03T20:15:18.780Z,16.80
2018-09-03T20:17:48.156Z,16.70
2018-09-03T20:20:17.448Z,16.70
2018-09-03T20:22:47.001Z,16.70
2018-09-03T20:25:16.323Z,16.60
2018-09-03T20:27:45.658Z,16.60
2018-09-03T20:30:14.982Z,16.60
2018-09-03T20:32:45.310Z,16.60
2018-09-03T20:35:14.826Z,16.60
2018-09-03T20:37:45.126Z,16.60
2018-09-03T20:40:14.552Z,16.60
2018-09-03T20:42:45.136Z,16.50
2018-09-03T20:45:14.626Z,16.50
2018-09-03T20:47:44.058Z,16.50
2018-09-03T20:50:13.605Z,16.50
2018-09-03T20:57:37.671Z,16.40
2018-09-03T21:00:07.603Z,16.30
2018-09-03T21:02:37.278Z,16.30
2018-09-03T21:05:06.938Z,16.30
2018-09-03T21:07:36.238Z,16.20
2018-09-03T21:10:06.390Z,16.20
2018-09-03T21:12:35.991Z,16.20
2018-09-03T21:15:05.455Z,16.20
2018-09-03T21:17:34.806Z,16.10
2018-09-03T21:20:04.222Z,16.10
2018-09-03T21:22:33.616Z,16.10
2018-09-03T21:25:03.122Z,16.10
2018-09-03T21:27:32.442Z,16.10
2018-09-03T21:30:01.986Z,16.10
2018-09-03T21:32:31.357Z,16.10
2018-09-03T21:35:00.882Z,16.10
2018-09-03T21:37:30.432Z,16.10
2018-09-03T21:39:59.940Z,16.10
2018-09-03T21:42:29.726Z,16.00
2018-09-03T21:44:59.112Z,16.00
2018-09-03T21:47:28.564Z,16.00
2018-09-03T21:49:57.900Z,16.10
2018-09-03T21:52:27.295Z,16.00
2018-09-03T21:54:56.846Z,16.00
2018-09-03T21:57:26.229Z,16.00
2018-09-03T21:59:55.704Z,16.00
2018-09-03T22:02:25.226Z,16.00
2018-09-03T22:04:54.723Z,16.00
2018-09-03T22:07:24.270Z,16.00
2018-09-03T22:09:53.712Z,15.90
2018-09-03T22:12:23.070Z,15.90
2018-09-03T22:14:52.491Z,15.90
2018-09-03T22:17:22.759Z,15.90
2018-09-03T22:19:52.218Z,15.90
2018-09-03T22:22:21.722Z,15.90
2018-09-03T22:24:51.107Z,15.80
2018-09-03T22:27:20.462Z,15.80
2018-09-03T22:29:49.763Z,15.70
2018-09-03T22:32:19.263Z,15.70
2018-09-03T22:34:48.643Z,15.70
2018-09-03T22:37:17.988Z,15.60
2018-09-03T22:39:47.569Z,15.60
2018-09-03T22:42:17.004Z,15.50
2018-09-03T22:44:47.674Z,15.50
2018-09-03T22:47:17.151Z,15.50
2018-09-03T22:49:46.684Z,15.40
2018-09-03T22:52:16.002Z,15.40
2018-09-03T22:54:45.596Z,15.40
2018-09-03T22:57:14.946Z,15.30
2018-09-03T22:59:44.339Z,15.30
2018-09-03T23:02:13.821Z,15.20
2018-09-03T23:04:43.154Z,15.20
2018-09-03T23:07:12.446Z,15.20
2018-09-03T23:09:42.687Z,15.10
2018-09-03T23:12:12.226Z,15.10
2018-09-03T23:14:41.630Z,15.00
2018-09-03T23:17:11.047Z,15.00
2018-09-03T23:19:40.407Z,14.90
2018-09-03T23:22:09.926Z,14.80
2018-09-03T23:24:39.454Z,14.80
2018-09-03T23:27:08.947Z,14.80
2018-09-03T23:29:38.403Z,14.70
2018-09-03T23:32:07.895Z,14.70
2018-09-03T23:34:37.447Z,14.70
2018-09-03T23:37:06.915Z,14.60
2018-09-03T23:39:36.442Z,14.60
2018-09-03T23:42:05.769Z,14.50
2018-09-03T23:44:35.154Z,14.50
2018-09-03T23:47:04.598Z,14.50
2018-09-03T23:49:33.930Z,14.40
2018-09-03T23:52:04.543Z,14.30
2018-09-03T23:54:34.161Z,14.30
2018-09-03T23:57:03.644Z,14.20
2018-09-03T23:59:33.169Z,14.10
